CheckWX is a tool to help pilots better visualize weather data.  It is not intended as a substitute for an official pre-flight weather briefing.

20:41:19 UTC

KEUF METAR
Weedon Field Airport
Eufaula, Alabama, USA
Current

43 mins ago

KEUF 181958Z AUTO 35003KT 10SM OVC070 17/04 A3017 RMK AO2 SLP213 T01720044
Observed
Feb-18 @ 19:58 UTC
Wind
  • 350° at 3 KTS
Visibility
10 SM
Flight Rules
VFR
Cloud Levels
  • Overcast at 7,000' AGL
Temperature
17°C / 63°F
Dewpoint
C / 39°F
Humidity
42%
Altimeter
30.17" Hg
Pressure
1021.3 hPa
Previous

2 hours ago

KEUF 181858Z AUTO VRB03KT 10SM BKN070 OVC085 17/04 A3017 RMK AO2 SLP216 T01670044
Observed
Feb-18 @ 18:58 UTC
Wind
  • Variable at 3 KTS
Visibility
10 SM
Flight Rules
VFR
Cloud Levels
  • Broken at 7,000' AGL
  • Overcast at 8,500' AGL
Temperature
17°C / 63°F
Dewpoint
C / 39°F
Humidity
42%
Altimeter
30.17" Hg
Pressure
1021.6 hPa
Previous

3 hours ago

KEUF 181758Z AUTO VRB04KT 10SM OVC065 16/07 A3019 RMK AO2 SLP221 60000 T01560067 10156 20128 50009
Observed
Feb-18 @ 17:58 UTC
Wind
  • Variable at 4 KTS
Visibility
10 SM
Flight Rules
VFR
Cloud Levels
  • Overcast at 6,500' AGL
Temperature
16°C / 61°F
Dewpoint
C / 45°F
Humidity
55%
Altimeter
30.19" Hg
Pressure
1022.1 hPa